Time;durP1;ratioP1;P1;durP2;ratioP2;P2;SDS_P1;SDS_P2;PMS_P1;PMS_P2;Temp;Humidity;BMP_temperature;BMP_pressure;BME280_temperature;BME280_humidity;BME280_pressure;Samples;Min_cycle;Max_cycle;Signal;HPM_P1;HPM_P2
2021/05/13 00:02:07;;;;;;;6.82;5.13;;;;;;;9.75;92.04;98650.50;5095123;28;20242;-72
2021/05/13 00:04:33;;;;;;;7.57;4.60;;;;;;;9.72;92.83;98650.75;5095331;28;20270;-70
2021/05/13 00:07:00;;;;;;;5.50;4.60;;;;;;;9.76;92.56;98648.69;5095312;28;20234;-70
2021/05/13 00:09:26;;;;;;;13.27;5.55;;;;;;;9.82;92.28;98659.88;5095050;28;20187;-70
2021/05/13 00:11:54;;;;;;;10.65;5.25;;;;;;;9.86;92.00;98657.84;5095198;28;20290;-72
2021/05/13 00:14:20;;;;;;;8.07;5.80;;;;;;;9.86;91.83;98646.19;5094928;28;20561;-72
2021/05/13 00:16:47;;;;;;;8.73;6.00;;;;;;;9.93;91.57;98652.88;5095131;28;20283;-71
2021/05/13 00:19:15;;;;;;;9.30;6.47;;;;;;;9.79;91.83;98646.66;5094628;28;20221;-71
2021/05/13 00:21:43;;;;;;;10.65;6.00;;;;;;;9.70;92.67;98649.09;5074851;28;20287;-72
2021/05/13 00:24:12;;;;;;;11.32;5.93;;;;;;;9.77;92.42;98651.28;5074877;28;20591;-71
2021/05/13 00:26:40;;;;;;;11.57;6.20;;;;;;;9.77;92.00;98643.22;5074951;28;20248;-71
2021/05/13 00:29:09;;;;;;;9.68;6.13;;;;;;;9.77;91.82;98640.53;5083387;28;20206;-70
2021/05/13 00:31:36;;;;;;;13.15;6.50;;;;;;;9.74;91.96;98640.72;5095214;28;20213;-72
2021/05/13 00:34:02;;;;;;;9.35;6.50;;;;;;;9.65;92.45;98637.81;5095141;28;20214;-71
2021/05/13 00:36:30;;;;;;;8.93;7.40;;;;;;;9.51;93.29;98647.69;5094552;28;20211;-71
2021/05/13 00:38:56;;;;;;;9.23;7.35;;;;;;;9.57;92.96;98639.22;5094495;28;20269;-72
2021/05/13 00:41:23;;;;;;;12.45;6.38;;;;;;;9.59;92.64;98639.97;5094429;28;20192;-71
2021/05/13 00:43:50;;;;;;;10.40;6.45;;;;;;;9.67;92.46;98639.44;5094286;28;20249;-72
2021/05/13 00:46:16;;;;;;;10.20;5.93;;;;;;;9.65;92.30;98641.38;5094779;28;20586;-70
2021/05/13 00:48:46;;;;;;;7.13;5.35;;;;;;;9.74;92.05;98642.56;5094506;28;20595;-72
2021/05/13 00:51:12;;;;;;;6.47;5.63;;;;;;;9.55;92.02;98641.16;5094589;28;20591;-72
2021/05/13 00:53:40;;;;;;;9.63;6.30;;;;;;;9.73;91.63;98640.84;5094225;28;20712;-72
2021/05/13 00:56:07;;;;;;;9.38;5.50;;;;;;;9.76;90.97;98638.78;5094564;28;20282;-73
2021/05/13 00:58:37;;;;;;;7.75;5.30;;;;;;;9.68;91.24;98637.59;5094446;28;20202;-71
2021/05/13 01:01:06;;;;;;;8.75;5.63;;;;;;;9.64;91.29;98628.91;5094428;28;20190;-72
2021/05/13 01:03:34;;;;;;;9.80;6.18;;;;;;;9.52;92.29;98622.56;5094407;28;20229;-71
2021/05/13 01:06:00;;;;;;;9.00;5.90;;;;;;;9.48;92.28;98621.03;5094368;28;20548;-72
2021/05/13 01:08:27;;;;;;;9.45;6.05;;;;;;;9.45;92.65;98620.38;5094426;28;20347;-72
2021/05/13 01:10:53;;;;;;;11.18;6.10;;;;;;;9.43;92.73;98615.13;5094235;28;20192;-72
2021/05/13 01:13:22;;;;;;;8.77;5.75;;;;;;;9.46;92.50;98614.91;5093892;28;20200;-72
2021/05/13 01:15:53;;;;;;;10.98;6.70;;;;;;;9.33;92.94;98614.03;5093965;28;20188;-71
2021/05/13 01:18:21;;;;;;;11.98;6.72;;;;;;;9.32;93.41;98615.88;5094308;28;20196;-73
2021/05/13 01:20:48;;;;;;;6.35;5.25;;;;;;;9.46;92.50;98614.06;5093815;28;20296;-72
2021/05/13 01:23:16;;;;;;;5.85;5.35;;;;;;;9.51;91.46;98615.44;5093904;28;20202;-72
2021/05/13 01:25:44;;;;;;;9.63;4.63;;;;;;;9.73;90.67;98616.66;5093451;28;20193;-72
2021/05/13 01:28:10;;;;;;;8.63;5.45;;;;;;;9.65;90.29;98624.38;5093405;28;20213;-72
2021/05/13 01:30:36;;;;;;;10.48;5.78;;;;;;;9.53;91.33;98618.03;5094085;28;20190;-72
2021/05/13 01:33:03;;;;;;;8.68;5.75;;;;;;;9.60;90.78;98614.81;5093435;28;20185;-71
2021/05/13 01:35:29;;;;;;;8.45;5.72;;;;;;;9.49;91.71;98606.63;5093727;28;20204;-71
2021/05/13 01:38:03;;;;;;;8.20;6.60;;;;;;;9.30;92.37;98617.78;5093718;28;20198;-72
2021/05/13 01:40:31;;;;;;;10.27;6.30;;;;;;;9.29;93.02;98615.22;5093145;28;20186;-72
2021/05/13 01:42:57;;;;;;;7.60;6.80;;;;;;;9.17;93.70;98615.09;5092882;28;20222;-72
2021/05/13 01:45:23;;;;;;;9.00;6.40;;;;;;;9.19;93.75;98614.97;5093404;28;20231;-71
2021/05/13 01:47:49;;;;;;;15.57;10.27;;;;;;;9.17;93.79;98620.44;5093474;28;20188;-72
2021/05/13 01:50:15;;;;;;;19.67;12.70;;;;;;;9.38;93.24;98604.72;5093385;28;20652;-71
2021/05/13 01:52:41;;;;;;;9.63;8.05;;;;;;;9.63;91.48;98619.09;5093011;28;20615;-72
2021/05/13 01:55:08;;;;;;;10.20;7.30;;;;;;;9.76;89.79;98609.22;5093206;28;20186;-71
2021/05/13 01:57:35;;;;;;;12.90;6.88;;;;;;;9.76;89.70;98611.91;5093429;28;20311;-72
2021/05/13 02:00:01;;;;;;;8.70;5.90;;;;;;;9.82;88.49;98610.63;5092833;28;20362;-72
2021/05/13 02:02:27;;;;;;;8.10;6.22;;;;;;;10.01;88.05;98602.09;5092045;28;20214;-72
2021/05/13 02:04:53;;;;;;;7.22;5.35;;;;;;;10.15;86.31;98598.41;5093306;28;20188;-71
2021/05/13 02:07:19;;;;;;;7.05;5.53;;;;;;;9.90;87.18;98604.69;5093268;28;20695;-70
2021/05/13 02:09:46;;;;;;;7.60;5.72;;;;;;;9.85;87.72;98606.84;5093458;28;20939;-72
2021/05/13 02:12:12;;;;;;;7.35;5.90;;;;;;;9.76;87.94;98603.84;5092980;28;20295;-72
2021/05/13 02:14:39;;;;;;;7.20;6.00;;;;;;;9.56;88.94;98609.75;5092750;28;20259;-70
2021/05/13 02:17:05;;;;;;;8.00;5.72;;;;;;;9.39;90.42;98600.19;5092806;28;20274;-72
2021/05/13 02:19:31;;;;;;;9.07;5.68;;;;;;;9.30;91.01;98590.09;5092708;28;20530;-72
2021/05/13 02:21:57;;;;;;;9.43;6.15;;;;;;;9.25;91.33;98603.84;5092533;28;20221;-72
2021/05/13 02:24:23;;;;;;;8.88;5.43;;;;;;;9.22;91.65;98587.06;5092865;28;20254;-72
2021/05/13 02:26:49;;;;;;;6.95;5.30;;;;;;;9.44;90.56;98587.28;5092422;28;20205;-71
2021/05/13 02:29:15;;;;;;;6.82;5.70;;;;;;;9.59;89.77;98586.22;5092401;28;20277;-73
2021/05/13 02:31:42;;;;;;;7.57;5.88;;;;;;;9.60;89.49;98581.69;5092417;28;20222;-72
2021/05/13 02:34:08;;;;;;;6.22;5.20;;;;;;;9.68;88.76;98579.34;5092855;28;20230;-72
2021/05/13 02:36:36;;;;;;;7.47;5.80;;;;;;;9.75;88.27;98579.78;5092722;28;20278;-71
2021/05/13 02:39:03;;;;;;;11.38;6.00;;;;;;;9.74;88.11;98583.41;5092338;28;20269;-72
2021/05/13 02:41:29;;;;;;;7.40;5.50;;;;;;;9.67;88.88;98576.75;5092554;28;20645;-71
2021/05/13 02:43:55;;;;;;;7.03;5.68;;;;;;;9.58;89.42;98586.31;5092620;28;20210;-73
2021/05/13 02:46:21;;;;;;;10.77;6.50;;;;;;;9.26;91.37;98581.38;5092050;28;20292;-72
2021/05/13 02:48:48;;;;;;;7.50;6.47;;;;;;;9.28;91.75;98573.22;5092314;28;20584;-71
2021/05/13 02:51:14;;;;;;;12.27;6.20;;;;;;;9.08;92.99;98577.25;5092350;28;20189;-72
2021/05/13 02:53:40;;;;;;;8.43;5.47;;;;;;;8.97;93.61;98569.94;5092203;28;20205;-72
2021/05/13 02:56:07;;;;;;;7.70;6.15;;;;;;;8.98;93.58;98569.84;5092716;28;20631;-71
2021/05/13 02:58:33;;;;;;;8.23;6.28;;;;;;;9.01;93.11;98562.53;5092662;28;20256;-72
2021/05/13 03:01:08;;;;;;;7.30;5.90;;;;;;;9.10;92.43;98568.13;5092573;28;20248;-72
2021/05/13 03:03:34;;;;;;;9.60;5.63;;;;;;;9.16;91.28;98570.41;5092455;28;20553;-71
2021/05/13 03:06:03;;;;;;;6.30;5.70;;;;;;;9.09;91.94;98565.53;5092081;28;20181;-71
2021/05/13 03:08:29;;;;;;;9.85;5.78;;;;;;;9.32;91.02;98564.84;5092033;28;20200;-72
2021/05/13 03:10:56;;;;;;;9.05;6.50;;;;;;;9.30;90.54;98566.75;5092175;28;20182;-72
2021/05/13 03:13:23;;;;;;;6.53;5.90;;;;;;;9.38;90.52;98563.53;5094670;28;20282;-71
2021/05/13 03:15:50;;;;;;;7.07;6.38;;;;;;;9.36;89.80;98566.34;5096272;28;20202;-73
2021/05/13 03:18:16;;;;;;;9.23;5.30;;;;;;;9.61;89.23;98578.06;5096065;28;20186;-71
2021/05/13 03:20:47;;;;;;;9.35;6.63;;;;;;;9.53;89.22;98575.03;5096180;28;20196;-72
2021/05/13 03:23:14;;;;;;;12.40;6.00;;;;;;;9.66;88.72;98575.91;5095903;28;20308;-73
2021/05/13 03:25:43;;;;;;;9.75;6.35;;;;;;;9.65;87.96;98576.00;5096066;28;20640;-74
2021/05/13 03:28:09;;;;;;;9.57;6.30;;;;;;;9.67;87.74;98574.91;5096412;28;20202;-72
2021/05/13 03:30:38;;;;;;;8.48;5.63;;;;;;;9.42;89.30;98575.78;5096054;28;20191;-71
2021/05/13 03:33:05;;;;;;;7.95;6.28;;;;;;;9.34;89.70;98578.16;5096287;28;20610;-71
2021/05/13 03:35:31;;;;;;;7.18;5.65;;;;;;;9.30;90.03;98579.34;5095843;28;20269;-71
2021/05/13 03:37:58;;;;;;;8.95;5.57;;;;;;;9.46;89.84;98579.97;5096061;28;20204;-72
2021/05/13 03:40:25;;;;;;;5.75;4.93;;;;;;;9.32;90.25;98574.72;5095727;28;20238;-71
2021/05/13 03:42:51;;;;;;;8.25;5.95;;;;;;;9.24;91.11;98574.38;5096018;28;20210;-72
2021/05/13 03:45:17;;;;;;;6.85;5.97;;;;;;;9.24;90.79;98567.19;5095456;28;20199;-72
2021/05/13 03:47:43;;;;;;;6.75;6.13;;;;;;;9.29;90.93;98567.72;5096037;28;20636;-73
2021/05/13 03:50:10;;;;;;;9.68;6.05;;;;;;;9.62;89.54;98577.09;5095586;28;20186;-71
2021/05/13 03:52:37;;;;;;;7.55;5.68;;;;;;;9.49;89.43;98571.69;5095000;28;20191;-73
2021/05/13 03:55:03;;;;;;;10.07;6.00;;;;;;;9.61;88.92;98588.81;5095660;28;20242;-73
2021/05/13 03:57:31;;;;;;;7.32;5.45;;;;;;;9.78;87.40;98583.09;5095605;28;20597;-70
2021/05/13 03:59:58;;;;;;;8.25;5.65;;;;;;;9.58;88.26;98581.81;5095347;28;20197;-73
2021/05/13 04:02:30;;;;;;;9.23;6.05;;;;;;;9.24;90.21;98580.59;5095478;28;20205;-72
2021/05/13 04:04:56;;;;;;;8.40;6.82;;;;;;;8.93;92.78;98571.09;5095073;28;20212;-71
2021/05/13 04:07:23;;;;;;;7.97;5.65;;;;;;;8.73;94.59;98573.31;5095351;28;20215;-72
2021/05/13 04:09:49;;;;;;;10.30;7.55;;;;;;;8.64;96.09;98571.25;5095747;28;21003;-72
2021/05/13 04:12:15;;;;;;;9.18;6.97;;;;;;;8.72;96.14;98574.25;5095300;28;20243;-71
2021/05/13 04:14:42;;;;;;;10.95;6.78;;;;;;;8.88;95.61;98571.41;5094993;28;20330;-72
2021/05/13 04:17:08;;;;;;;7.57;6.10;;;;;;;8.95;94.44;98577.22;5095379;28;20546;-73
2021/05/13 04:19:35;;;;;;;8.00;6.63;;;;;;;8.83;94.60;98570.88;5094895;28;20282;-71
2021/05/13 04:22:02;;;;;;;9.73;6.47;;;;;;;8.74;95.52;98576.84;5094590;28;20184;-72
2021/05/13 04:24:28;;;;;;;8.27;6.68;;;;;;;8.93;95.03;98580.03;5094282;28;20206;-72
2021/05/13 04:26:54;;;;;;;8.80;6.38;;;;;;;9.28;93.13;98567.84;5095027;28;20224;-71
2021/05/13 04:29:20;;;;;;;6.97;6.10;;;;;;;9.42;91.75;98573.09;5094666;28;20185;-73
2021/05/13 04:31:47;;;;;;;9.73;6.95;;;;;;;9.31;91.77;98570.31;5095032;28;20289;-73
2021/05/13 04:34:13;;;;;;;10.05;6.72;;;;;;;9.03;93.39;98565.97;5094508;28;20181;-72
2021/05/13 04:36:39;;;;;;;7.80;6.03;;;;;;;8.98;93.87;98561.78;5094544;28;20209;-71
2021/05/13 04:39:06;;;;;;;11.50;8.32;;;;;;;8.87;94.52;98558.09;5094556;28;20232;-73
2021/05/13 04:41:33;;;;;;;8.68;6.88;;;;;;;8.83;95.00;98554.75;5094781;28;20184;-72
2021/05/13 04:44:00;;;;;;;9.45;7.07;;;;;;;8.84;94.94;98545.75;5094315;28;20242;-72
2021/05/13 04:46:29;;;;;;;11.80;7.20;;;;;;;8.93;94.38;98547.81;5094608;28;20200;-72
2021/05/13 04:49:14;;;;;;;9.65;6.70;;;;;;;8.88;94.81;98549.06;5094583;28;20187;-72
2021/05/13 04:51:40;;;;;;;8.90;6.97;;;;;;;9.21;93.46;98547.75;5093837;28;20280;-72
2021/05/13 04:54:06;;;;;;;9.10;6.70;;;;;;;9.27;92.57;98552.66;5094152;28;20246;-72
2021/05/13 04:56:33;;;;;;;7.13;6.43;;;;;;;9.23;92.33;98548.50;5093782;28;20271;-73
2021/05/13 04:59:00;;;;;;;10.70;7.43;;;;;;;9.41;91.40;98544.53;5093635;28;20188;-72
2021/05/13 05:01:26;;;;;;;12.65;6.80;;;;;;;9.56;90.63;98548.78;5094023;28;20644;-73
2021/05/13 05:03:52;;;;;;;10.43;6.35;;;;;;;9.47;90.35;98549.44;5094299;28;20295;-71
2021/05/13 05:06:19;;;;;;;11.10;6.70;;;;;;;9.32;91.52;98547.88;5094111;28;20554;-72
2021/05/13 05:08:45;;;;;;;10.45;6.72;;;;;;;9.21;92.31;98545.91;5093682;28;20292;-71
2021/05/13 05:11:12;;;;;;;11.10;7.25;;;;;;;9.22;92.76;98542.25;5093541;28;20272;-69
2021/05/13 05:13:38;;;;;;;9.65;7.15;;;;;;;9.12;93.32;98538.50;5094037;28;20654;-70
2021/05/13 05:16:05;;;;;;;9.18;7.32;;;;;;;9.06;94.00;98539.75;5094063;28;20201;-72
2021/05/13 05:18:31;;;;;;;10.25;6.90;;;;;;;9.16;93.69;98543.56;5093408;28;20182;-72
2021/05/13 05:20:58;;;;;;;8.43;7.35;;;;;;;9.51;91.99;98548.28;5093719;28;20198;-72
2021/05/13 05:23:25;;;;;;;11.43;6.43;;;;;;;9.51;91.23;98545.59;5093510;28;20251;-71
2021/05/13 05:25:51;;;;;;;14.30;8.05;;;;;;;9.73;90.44;98538.69;5093757;28;20587;-71
2021/05/13 05:28:18;;;;;;;10.13;7.25;;;;;;;9.75;89.34;98534.06;5093337;28;20231;-71
2021/05/13 05:30:44;;;;;;;8.00;7.20;;;;;;;9.91;88.75;98541.91;5093332;28;20286;-73
2021/05/13 05:33:11;;;;;;;9.73;7.43;;;;;;;9.86;88.88;98535.97;5093374;28;20280;-72
2021/05/13 05:35:38;;;;;;;7.78;6.93;;;;;;;9.53;90.21;98527.53;5093530;28;20230;-72
2021/05/13 05:38:05;;;;;;;13.57;7.57;;;;;;;9.47;91.71;98521.72;5093140;28;20190;-72
2021/05/13 05:40:33;;;;;;;11.63;8.20;;;;;;;9.54;91.72;98517.63;5093450;28;20181;-73
2021/05/13 05:42:59;;;;;;;12.73;7.35;;;;;;;9.49;92.50;98530.53;5093208;28;20212;-71
2021/05/13 05:45:26;;;;;;;10.68;7.35;;;;;;;9.38;92.85;98513.38;5093404;28;20251;-71
2021/05/13 05:47:59;;;;;;;11.70;7.88;;;;;;;9.48;92.85;98520.78;5093360;28;20185;-73
2021/05/13 05:50:26;;;;;;;8.32;7.38;;;;;;;9.90;90.61;98513.28;5093451;28;20189;-71
2021/05/13 05:52:52;;;;;;;8.23;7.38;;;;;;;10.03;89.53;98506.88;5093267;28;20197;-73
2021/05/13 05:55:18;;;;;;;10.35;7.20;;;;;;;10.45;87.23;98506.56;5093188;28;20635;-71
2021/05/13 05:57:45;;;;;;;10.88;8.00;;;;;;;10.32;87.24;98503.06;5093248;28;20648;-72
2021/05/13 06:00:12;;;;;;;8.25;7.20;;;;;;;10.64;86.21;98509.56;5093084;28;20273;-71
2021/05/13 06:02:39;;;;;;;8.18;6.60;;;;;;;11.00;84.70;98505.03;5092959;28;20309;-72
2021/05/13 06:05:06;;;;;;;10.98;7.55;;;;;;;11.38;82.21;98501.19;5092657;28;20195;-72
2021/05/13 06:07:32;;;;;;;11.25;7.53;;;;;;;11.77;79.93;98503.53;5092748;28;20191;-70
2021/05/13 06:09:58;;;;;;;7.60;6.82;;;;;;;12.12;78.38;98513.31;5092730;28;20219;-71
2021/05/13 06:12:24;;;;;;;9.02;6.55;;;;;;;12.29;77.04;98508.25;5092437;28;20274;-72
2021/05/13 06:14:51;;;;;;;8.55;5.97;;;;;;;12.77;74.71;98506.13;5092947;28;20191;-72
2021/05/13 06:17:17;;;;;;;9.90;6.95;;;;;;;12.98;73.51;98500.75;5092387;28;20227;-72
2021/05/13 06:19:43;;;;;;;10.07;6.28;;;;;;;13.23;72.45;98505.78;5092460;28;20223;-72
2021/05/13 06:22:09;;;;;;;12.27;6.20;;;;;;;13.38;71.36;98497.34;5092786;28;20592;-72
2021/05/13 06:24:36;;;;;;;7.97;6.40;;;;;;;13.60;71.06;98499.88;5092706;28;20262;-71
2021/05/13 06:27:04;;;;;;;6.80;5.80;;;;;;;13.80;70.30;98492.72;5092754;28;20188;-71
2021/05/13 06:29:30;;;;;;;7.43;5.50;;;;;;;13.89;69.49;98500.00;5092691;28;20555;-72
2021/05/13 06:31:57;;;;;;;8.57;5.32;;;;;;;13.91;69.09;98497.16;5092745;28;20190;-72
2021/05/13 06:34:24;;;;;;;10.65;5.80;;;;;;;14.00;68.43;98499.03;5092693;28;20606;-70
2021/05/13 06:36:50;;;;;;;9.05;5.97;;;;;;;14.07;68.17;98499.34;5092121;28;20200;-71
2021/05/13 06:39:17;;;;;;;6.70;4.65;;;;;;;14.07;67.88;98505.63;5092049;28;20289;-70
2021/05/13 06:41:43;;;;;;;6.60;4.70;;;;;;;13.81;68.72;98507.09;5092469;28;20188;-72
2021/05/13 06:44:09;;;;;;;5.93;4.78;;;;;;;13.97;68.32;98504.72;5092629;28;20988;-72
2021/05/13 06:46:36;;;;;;;5.82;3.65;;;;;;;14.53;66.03;98497.88;5092440;28;20185;-71
2021/05/13 06:49:03;;;;;;;4.03;3.38;;;;;;;14.85;64.62;98503.03;5092261;28;20223;-71
2021/05/13 06:51:29;;;;;;;4.85;3.92;;;;;;;15.13;64.05;98503.19;5092460;28;20184;-73
2021/05/13 06:53:56;;;;;;;3.90;3.50;;;;;;;15.48;62.33;98510.66;5091968;28;20201;-73
2021/05/13 06:56:22;;;;;;;4.90;3.53;;;;;;;15.36;63.08;98511.84;5091976;28;20187;-72
2021/05/13 06:58:48;;;;;;;7.57;4.18;;;;;;;15.61;62.24;98510.34;5092417;28;20383;-72
2021/05/13 07:01:15;;;;;;;6.60;3.03;;;;;;;15.58;62.52;98513.31;5092445;28;20578;-73
2021/05/13 07:03:42;;;;;;;4.75;3.45;;;;;;;15.59;62.67;98515.91;5092175;28;20230;-72
2021/05/13 07:06:09;;;;;;;3.95;2.85;;;;;;;15.57;62.89;98517.91;5091861;28;20201;-72
2021/05/13 07:08:35;;;;;;;5.13;3.08;;;;;;;15.27;63.85;98520.84;5091800;28;20299;-71
2021/05/13 07:11:01;;;;;;;5.45;2.72;;;;;;;15.27;63.97;98510.00;5092184;28;20214;-73
2021/05/13 07:13:27;;;;;;;3.80;2.70;;;;;;;15.52;63.19;98514.78;5091816;28;20240;-72
2021/05/13 07:15:54;;;;;;;5.80;3.00;;;;;;;15.58;63.40;98513.31;5091603;28;20209;-71
2021/05/13 07:18:20;;;;;;;4.25;3.10;;;;;;;15.45;63.80;98516.38;5091582;28;20278;-72
2021/05/13 07:20:47;;;;;;;6.38;2.83;;;;;;;15.46;63.94;98515.38;5091871;28;20201;-73
2021/05/13 07:23:14;;;;;;;4.20;3.08;;;;;;;15.60;63.89;98519.47;5091810;28;20748;-72
2021/05/13 07:25:41;;;;;;;3.58;3.20;;;;;;;15.49;64.25;98509.66;5091963;28;20248;-72
2021/05/13 07:28:08;;;;;;;5.18;3.45;;;;;;;15.38;64.79;98505.25;5092073;28;20190;-72
2021/05/13 07:30:34;;;;;;;3.38;2.85;;;;;;;15.71;64.23;98513.03;5092050;28;20260;-72
2021/05/13 07:33:00;;;;;;;3.67;3.38;;;;;;;15.99;63.30;98512.09;5091754;28;20213;-72
2021/05/13 07:35:26;;;;;;;4.72;2.60;;;;;;;16.13;60.64;98518.03;5091658;28;20187;-72
2021/05/13 07:37:53;;;;;;;7.65;2.53;;;;;;;16.18;60.89;98512.97;5091863;28;20286;-71
2021/05/13 07:40:21;;;;;;;3.70;3.40;;;;;;;16.26;59.79;98510.38;5091362;28;20232;-72
2021/05/13 07:42:48;;;;;;;5.10;3.05;;;;;;;16.39;59.56;98505.44;5091718;28;20220;-74
2021/05/13 07:45:16;;;;;;;3.17;2.88;;;;;;;16.38;59.67;98505.59;5091429;28;20190;-73
2021/05/13 07:47:43;;;;;;;4.47;2.65;;;;;;;16.77;58.19;98506.16;5091655;28;20399;-72
2021/05/13 07:50:12;;;;;;;3.63;2.72;;;;;;;16.71;57.74;98508.63;5091723;28;20627;-73
2021/05/13 07:52:39;;;;;;;5.25;3.15;;;;;;;16.97;56.67;98506.03;5091402;28;20196;-73
2021/05/13 07:55:06;;;;;;;5.28;2.67;;;;;;;17.23;55.69;98503.34;5091798;28;20690;-72
2021/05/13 07:57:33;;;;;;;4.05;2.08;;;;;;;17.11;55.50;98505.47;5091568;28;20650;-71
2021/05/13 08:00:00;;;;;;;4.20;2.58;;;;;;;17.09;54.86;98500.19;5093355;28;20227;-72
2021/05/13 08:02:26;;;;;;;4.18;2.90;;;;;;;16.90;56.06;98503.09;5095257;28;20192;-72
2021/05/13 08:04:52;;;;;;;2.90;2.65;;;;;;;16.62;56.97;98500.41;5095115;28;20298;-73
2021/05/13 08:07:20;;;;;;;4.25;2.05;;;;;;;16.88;56.43;98502.38;5095025;28;20184;-72
2021/05/13 08:09:46;;;;;;;4.00;2.38;;;;;;;17.64;53.86;98504.50;5094807;28;20261;-72
2021/05/13 08:12:12;;;;;;;4.65;3.05;;;;;;;17.70;53.26;98506.59;5095008;28;20180;-72
2021/05/13 08:14:40;;;;;;;6.45;2.10;;;;;;;17.34;54.40;98511.25;5094808;28;20233;-72
2021/05/13 08:17:06;;;;;;;6.35;2.55;;;;;;;17.40;54.11;98507.06;5094970;28;20217;-71
2021/05/13 08:19:32;;;;;;;3.13;2.30;;;;;;;17.32;54.62;98509.69;5094604;28;20208;-72
2021/05/13 08:21:58;;;;;;;2.95;2.25;;;;;;;16.88;55.76;98502.38;5094117;28;20215;-71
2021/05/13 08:24:24;;;;;;;3.50;2.70;;;;;;;17.09;55.67;98507.47;5094929;28;20234;-74
2021/05/13 08:26:51;;;;;;;7.78;2.90;;;;;;;16.97;55.56;98511.47;5094438;28;20216;-71
2021/05/13 08:29:18;;;;;;;4.07;2.80;;;;;;;16.96;56.08;98510.63;5094736;28;20210;-72
2021/05/13 08:31:45;;;;;;;4.18;2.22;;;;;;;17.23;56.10;98506.94;5095047;28;20286;-72
2021/05/13 08:34:11;;;;;;;3.45;2.50;;;;;;;17.68;54.51;98510.44;5094786;28;20625;-72
2021/05/13 08:36:37;;;;;;;2.67;2.00;;;;;;;17.52;54.06;98505.75;5094498;28;20224;-72
2021/05/13 08:39:04;;;;;;;3.75;2.20;;;;;;;17.56;53.88;98512.59;5094210;28;20634;-72
2021/05/13 08:41:30;;;;;;;4.43;2.70;;;;;;;17.67;52.77;98515.06;5094787;28;20206;-73
2021/05/13 08:43:58;;;;;;;5.20;2.80;;;;;;;17.98;52.45;98521.91;5094574;28;20721;-72
2021/05/13 08:46:24;;;;;;;4.97;2.80;;;;;;;17.94;52.54;98515.91;5094650;28;20622;-72
2021/05/13 08:48:52;;;;;;;3.22;2.30;;;;;;;17.70;53.32;98519.31;5094412;28;20268;-74
2021/05/13 08:51:18;;;;;;;2.90;2.35;;;;;;;18.13;52.47;98523.84;5094537;28;20271;-72
2021/05/13 08:53:49;;;;;;;7.43;2.97;;;;;;;18.28;51.73;98520.50;5094043;28;20197;-73
2021/05/13 08:56:16;;;;;;;4.68;2.72;;;;;;;18.07;52.09;98532.66;5093875;28;20224;-73
2021/05/13 08:58:43;;;;;;;7.95;3.00;;;;;;;17.50;54.29;98529.56;5094134;28;20246;-72
2021/05/13 09:01:14;;;;;;;5.18;2.80;;;;;;;17.75;54.10;98527.00;5094083;28;20272;-72
2021/05/13 09:03:41;;;;;;;4.28;3.00;;;;;;;17.77;53.81;98531.25;5093663;28;20220;-72
2021/05/13 09:06:17;;;;;;;4.82;2.80;;;;;;;17.61;53.78;98529.28;5093608;28;20223;-73
2021/05/13 09:08:43;;;;;;;3.10;2.80;;;;;;;18.16;52.79;98528.13;5094221;28;20675;-71
2021/05/13 09:11:11;;;;;;;4.63;2.85;;;;;;;18.16;52.68;98524.50;5093958;28;20197;-73
2021/05/13 09:13:37;;;;;;;3.83;2.90;;;;;;;18.60;51.60;98525.19;5094182;28;20251;-71
2021/05/13 09:16:25;;;;;;;4.53;2.90;;;;;;;18.09;52.25;98519.75;5093983;28;20313;-71
2021/05/13 09:18:51;;;;;;;3.40;2.53;;;;;;;18.30;52.26;98523.91;5093678;28;20193;-73
2021/05/13 09:21:18;;;;;;;7.32;2.80;;;;;;;18.13;53.00;98517.53;5093575;28;20222;-71
2021/05/13 09:23:44;;;;;;;5.88;2.35;;;;;;;17.99;53.20;98515.44;5093838;28;20257;-72
2021/05/13 09:26:12;;;;;;;5.57;3.10;;;;;;;18.55;52.19;98520.22;5093709;28;20205;-71
2021/05/13 09:28:38;;;;;;;3.08;2.25;;;;;;;18.98;50.91;98513.88;5093723;28;20538;-73
2021/05/13 09:31:05;;;;;;;4.82;3.25;;;;;;;19.32;50.30;98514.56;5093567;28;20293;-71
2021/05/13 09:33:34;;;;;;;5.53;2.95;;;;;;;19.43;49.97;98513.34;5093653;28;20186;-72
2021/05/13 09:36:21;;;;;;;6.22;2.65;;;;;;;19.84;48.89;98510.56;5093756;28;20993;-72
2021/05/13 09:38:48;;;;;;;4.85;2.85;;;;;;;20.14;48.08;98516.28;5093302;28;20226;-73
2021/05/13 09:41:27;;;;;;;3.00;2.58;;;;;;;19.26;49.81;98503.47;5093808;28;20599;-71
2021/05/13 09:43:53;;;;;;;3.17;2.88;;;;;;;19.32;50.16;98516.44;5093407;28;20203;-71
2021/05/13 09:46:31;;;;;;;4.30;3.90;;;;;;;19.72;48.84;98515.56;5093602;28;20187;-71
2021/05/13 09:48:58;;;;;;;7.13;3.65;;;;;;;19.63;49.20;98502.94;5093631;28;20590;-72
2021/05/13 09:51:26;;;;;;;4.72;3.03;;;;;;;19.76;48.68;98511.47;5093063;28;20273;-73
2021/05/13 09:54:06;;;;;;;7.43;3.25;;;;;;;19.24;50.70;98506.34;5093139;28;20179;-73
2021/05/13 09:56:32;;;;;;;5.10;3.10;;;;;;;19.31;50.51;98509.25;5092725;28;20277;-72
2021/05/13 09:59:18;;;;;;;4.40;3.20;;;;;;;19.63;49.76;98508.38;5093123;28;20604;-72
2021/05/13 10:01:44;;;;;;;3.83;2.75;;;;;;;19.59;49.92;98501.56;5092549;28;20187;-72
2021/05/13 10:04:11;;;;;;;4.47;3.30;;;;;;;19.18;50.77;98509.78;5092527;28;20229;-72
2021/05/13 10:06:38;;;;;;;3.45;2.67;;;;;;;19.06;51.54;98502.94;5092620;28;20190;-71
2021/05/13 10:09:04;;;;;;;4.40;3.55;;;;;;;18.86;52.35;98505.16;5092542;28;20202;-73
2021/05/13 10:11:32;;;;;;;4.35;2.92;;;;;;;18.24;53.79;98510.94;5092756;28;20190;-72
2021/05/13 10:13:59;;;;;;;4.30;3.88;;;;;;;18.07;55.06;98510.03;5092443;28;20185;-71
2021/05/13 10:16:28;;;;;;;5.10;4.03;;;;;;;18.28;54.64;98515.91;5092333;28;20237;-74
2021/05/13 10:18:57;;;;;;;5.75;3.45;;;;;;;18.65;53.72;98511.91;5092252;28;20221;-72
2021/05/13 10:21:25;;;;;;;2.85;2.65;;;;;;;18.94;53.39;98505.16;5092081;28;20191;-72
2021/05/13 10:23:54;;;;;;;4.82;3.20;;;;;;;19.25;51.51;98502.63;5092403;28;20225;-72
2021/05/13 10:26:41;;;;;;;4.45;3.17;;;;;;;19.42;50.14;98502.59;5092704;28;20188;-72
2021/05/13 10:29:35;;;;;;;3.08;2.17;;;;;;;18.83;51.86;98497.31;5072303;28;20246;-72
2021/05/13 10:32:11;;;;;;;2.40;2.20;;;;;;;18.02;54.02;98501.47;5088283;28;20201;-71
2021/05/13 10:34:48;;;;;;;6.43;2.70;;;;;;;18.40;52.85;98502.81;5092048;28;20187;-72
2021/05/13 10:37:17;;;;;;;4.35;2.15;;;;;;;18.79;51.69;98490.50;5092364;28;20203;-71
2021/05/13 10:40:18;;;;;;;3.28;2.15;;;;;;;19.16;50.33;98490.84;5092082;28;20216;-73
2021/05/13 10:42:48;;;;;;;2.67;2.35;;;;;;;19.64;48.91;98493.69;5092078;28;20548;-72
2021/05/13 10:45:40;;;;;;;4.88;3.00;;;;;;;19.45;48.99;98485.91;5092371;28;20242;-71
2021/05/13 10:48:12;;;;;;;2.47;1.92;;;;;;;19.28;48.72;98485.06;5072265;28;20191;-71
2021/05/13 10:50:44;;;;;;;2.92;2.20;;;;;;;18.48;50.92;98485.66;5072358;28;20658;-72
2021/05/13 10:53:45;;;;;;;2.42;2.00;;;;;;;18.49;50.84;98487.34;5072110;28;20206;-71
2021/05/13 10:56:17;;;;;;;2.85;2.20;;;;;;;18.80;49.67;98487.59;5088693;28;20530;-70
2021/05/13 10:59:13;;;;;;;2.88;2.05;;;;;;;18.80;49.91;98493.06;5092304;28;20208;-73
2021/05/13 11:01:45;;;;;;;2.58;2.25;;;;;;;18.05;51.96;98493.00;5091567;28;20221;-73
2021/05/13 11:04:39;;;;;;;2.85;2.10;;;;;;;18.10;51.53;98494.19;5092301;28;20566;-72
2021/05/13 11:07:06;;;;;;;2.75;2.08;;;;;;;18.72;49.51;98491.16;5091499;28;20193;-73
2021/05/13 11:09:51;;;;;;;2.72;1.80;;;;;;;19.00;48.45;98484.56;5091742;28;20296;-70
2021/05/13 11:12:20;;;;;;;4.65;2.00;;;;;;;18.82;48.95;98487.44;5091757;28;20278;-73
2021/05/13 11:15:22;;;;;;;3.72;2.25;;;;;;;18.52;50.49;98492.47;5087481;28;20220;-71
2021/05/13 11:18:12;;;;;;;2.70;2.20;;;;;;;18.23;52.20;98511.97;5091995;28;20504;-72
2021/05/13 11:20:56;;;;;;;2.72;2.47;;;;;;;16.68;59.76;98509.78;5091793;28;20196;-71
2021/05/13 11:23:25;;;;;;;3.97;2.15;;;;;;;16.61;62.64;98515.00;5093143;28;20352;-77
2021/05/13 11:25:53;;;;;;;2.50;2.30;;;;;;;16.47;65.48;98529.97;5091634;28;20594;-77
2021/05/13 11:28:25;;;;;;;2.28;2.08;;;;;;;16.47;68.21;98529.97;5092011;28;20257;-77
2021/05/13 11:30:53;;;;;;;2.20;1.80;;;;;;;16.16;68.58;98534.00;5091569;28;20295;-77
2021/05/13 11:33:19;;;;;;;3.22;2.20;;;;;;;15.87;71.06;98540.41;5092433;28;20184;-76
2021/05/13 11:35:46;;;;;;;3.35;2.30;;;;;;;15.61;73.60;98542.91;5095539;28;20222;-77
2021/05/13 11:38:17;;;;;;;4.47;2.28;;;;;;;15.47;77.22;98540.63;5095172;28;20208;-76
2021/05/13 11:40:44;;;;;;;4.85;2.38;;;;;;;15.40;78.07;98543.09;5095327;28;20640;-76
2021/05/13 11:43:24;;;;;;;4.10;2.65;;;;;;;15.27;81.06;98539.84;5094835;28;20233;-77